San Clemente Ridge Station Data

Red Flag Warning: No
Fire Weather Zone: 242
SDGE Region: Orange County
Lat/Lon: 33.436/-117.59

Observations

Time Wind Speed/Gust Temp(F) RH Fuel Moist Fuel Temp(F) Dewpt(F) Tmax(F) Tmin(F) Accum Precip 10-min Precip SL Press(mb)
6/27 5:00pm 290 6 G 9 70° 69% - - 59° 80.3° 68.4° - - 1012.0
6/27 4:50pm 281 6 G 10 70° 67% - - 59° 80.3° 68.4° - - 1012.0
6/27 4:40pm 274 6 G 10 71° 66% - - 59° 80.3° 68.4° - - 1012.0
6/27 4:30pm 279 7 G 11 71° 66% - - 59° 80.3° 68.4° - - 1012.0
6/27 4:20pm 286 6 G 9 71° 65% - - 58° 80.3° 68.4° - - 1012.0
6/27 4:10pm 281 7 G 11 71° 63% - - 58° 80.3° 68.4° - - 1012.0
6/27 4:00pm 277 8 G 11 71° 61% - - 57° 80.3° 68.4° - - 1012.0
6/27 3:50pm 271 9 G 12 71° 60% - - 56° 80.3° 68.4° - - 1012.0
6/27 3:40pm 270 9 G 12 71° 60% - - 57° 80.3° 68.4° - - 1012.0
6/27 3:30pm 277 9 G 13 70° 62% - - 57° 80.3° 68.4° - - 1012.0
6/27 3:20pm 279 10 G 13 72° 59% - - 57° 80.3° 68.4° - - 1012.0
6/27 3:10pm 279 8 G 13 73° 56% - - 57° 80.3° 68.4° - - 1012.0
6/27 3:00pm 291 8 G 12 73° 58% - - 57° 80.3° 68.4° - - 1012.0
6/27 2:50pm 294 8 G 10 73° 56% - - 57° 80.3° 68.4° - - 1012.0
6/27 2:40pm 289 7 G 10 75° 54% - - 57° 80.3° 68.4° - - 1012.0
6/27 2:30pm 288 7 G 10 76° 52% - - 57° 80.3° 68.4° - - 1012.0
6/27 2:20pm 279 4 G 7 77° 50% - - 57° 80.3° 68.4° - - 1012.0
6/27 2:10pm 295 4 G 7 75° 54% - - 57° 80.3° 68.4° - - 1012.0
6/27 2:00pm 269 6 G 8 74° 55% - - 57° 80.3° 68.4° - - 1012.0
6/27 1:50pm 269 6 G 9 73° 58% - - 57° 80.3° 68.4° - - 1013.0
6/27 1:40pm 278 7 G 10 73° 58% - - 57° 80.3° 68.4° - - 1013.0
6/27 1:30pm 273 7 G 11 73° 55% - - 56° 80.3° 68.4° - - 1013.0
6/27 1:20pm 271 7 G 10 73° 55% - - 56° 80.3° 68.4° - - 1013.0
6/27 1:10pm 274 7 G 12 74° 52% - - 56° 80.3° 68.4° - - 1013.0
6/27 1:00pm 278 6 G 10 74° 52% - - 55° 80.3° 68.4° - - 1013.0
6/27 12:50pm 284 6 G 9 75° 52% - - 56° 80.3° 68.4° - - 1013.0
6/27 12:40pm 285 5 G 8 75° 49% - - 55° 80.3° 68.4° - - 1013.0
6/27 12:30pm 278 5 G 7 76° 48% - - 55° 80.3° 68.4° - - 1013.0
6/27 12:20pm 276 6 G 9 75° 51% - - 56° 80.3° 68.4° - - 1013.0
6/27 12:10pm 293 7 G 10 76° 50% - - 57° 80.3° 68.4° - - 1012.0
6/27 12:00pm 302 6 G 10 78° 51% - - 59° 80.3° 68.4° - - 1012.0
6/27 11:50am 299 5 G 6 79° 51% - - 59° 80.3° 68.4° - - 1012.0
6/27 11:40am 302 5 G 6 79° 49% - - 58° 80.3° 68.4° - - 1012.0
6/27 11:30am 296 5 G 7 79° 47% - - 57° 80.3° 68.4° - - 1012.0
6/27 11:20am 294 4 G 6 78° 49% - - 58° 79.4° 68.4° - - 1013.0
6/27 11:10am 299 5 G 6 77° 51% - - 58° 79.2° 68.4° - - 1013.0
6/27 11:00am 301 4 G 6 76° 53% - - 57° 79.2° 68.4° - - 1013.0
6/27 10:50am 305 4 G 6 76° 52% - - 57° 79.2° 68.4° - - 1013.0
6/27 10:40am 292 3 G 6 75° 51% - - 56° 79.2° 68.4° - - 1013.0
6/27 10:30am 305 4 G 5 74° 52% - - 56° 79.2° 68.4° - - 1013.0
6/27 10:20am 297 4 G 6 73° 54% - - 55° 79.2° 68.4° - - 1013.0
6/27 10:00am 297 4 G 7 73° 54% - - 55° 79.2° 68.4° - - 1013.0
6/27 9:50am 296 5 G 7 73° 54% - - 55° 79.2° 68.4° - - 1013.0
6/27 9:40am 287 3 G 6 72° 56% - - 55° 79.2° 68.4° - - 1013.0
6/27 9:30am 299 5 G 6 72° 57% - - 56° 79.2° 68.4° - - 1013.0
6/27 9:20am 291 3 G 5 73° 57% - - 57° 79.2° 68.4° - - 1013.0
6/27 9:10am 187 4 G 7 75° 44% - - 52° 79.2° 68.4° - - 1013.0
6/27 8:50am 176 3 G 5 74° 45% - - 51° 79.2° 68.4° - - 1013.0
6/27 8:40am 163 3 G 4 74° 45% - - 51° 79.2° 68.4° - - 1013.0
6/27 8:30am 156 3 G 5 72° 46% - - 50° 79.2° 68.4° - - 1013.0
6/27 8:20am 159 4 G 5 71° 46% - - 50° 79.2° 68.4° - - 1013.0
6/27 8:10am 148 5 G 6 71° 45% - - 48° 79.2° 68.4° - - 1013.0
6/27 8:00am 142 6 G 7 70° 42% - - 46° 79.2° 68.4° - - 1013.0
6/27 7:40am 150 4 G 6 69° 29% - - 35° 79.2° 68.4° - - 1013.0
6/27 7:30am 146 4 G 5 72° 24% - - 33° 79.2° 68.9° - - 1012.0
6/27 7:20am 133 5 G 7 74° 20% - - 31° 79.2° 70.6° - - 1012.0
6/27 7:10am 121 5 G 6 75° 19% - - 29° 79.2° 70.6° - - 1012.0
6/27 7:00am 103 4 G 5 75° 18% - - 29° 79.2° 70.6° - - 1012.0
6/27 6:50am 97 4 G 5 74° 18% - - 28° 79.2° 70.6° - - 1012.0
6/27 6:40am 121 4 G 5 75° 18% - - 29° 79.2° 70.6° - - 1012.0
6/27 6:30am 71 6 G 8 76° 17% - - 27° 79.2° 70.6° - - 1012.0
6/27 6:20am 87 6 G 8 77° 16% - - 27° 79.2° 70.6° - - 1012.0
6/27 6:10am 87 5 G 7 76° 18% - - 30° 79.2° 70.6° - - 1012.0
6/27 6:00am 93 4 G 5 77° 21% - - 34° 79.2° 70.6° - - 1012.0
6/27 5:50am 82 5 G 6 77° 20% - - 32° 79.2° 70.6° - - 1011.0
6/27 5:40am 69 6 G 6 74° 21% - - 32° 79.2° 70.6° - - 1011.0
6/27 5:30am 52 5 G 5 73° 25% - - 35° 79.2° 70.6° - - 1012.0
6/27 5:20am 50 5 G 6 72° 26% - - 35° 79.2° 70.6° - - 1012.0
6/27 5:10am 40 4 G 5 73° 24% - - 34° 79.2° 70.6° - - 1012.0
6/27 5:00am 34 4 G 4 73° 25% - - 36° 79.2° 70.6° - - 1012.0
6/27 4:50am 59 3 G 4 73° 27% - - 36° 79.2° 70.6° - - 1012.0
6/27 4:40am 13 1 G 3 72° 37% - - 44° 79.2° 70.6° - - 1012.0
6/27 4:30am 322 2 G 3 72° 35% - - 43° 79.2° 70.6° - - 1012.0
6/27 4:20am 293 2 G 3 74° 31% - - 41° 79.2° 70.6° - - 1012.0
6/27 4:10am 324 3 G 4 76° 28% - - 40° 79.2° 70.6° - - 1011.0
6/27 4:00am 344 5 G 7 77° 26% - - 40° 79.2° 70.6° - - 1011.0
6/27 3:50am 340 6 G 8 78° 22% - - 36° 79.2° 70.6° - - 1011.0
6/27 3:40am 356 6 G 9 79° 23% - - 37° 79.2° 70.6° - - 1011.0
6/27 3:30am 13 7 G 8 78° 26% - - 40° 79.1° 70.6° - - 1011.0
6/27 3:20am 25 9 G 10 77° 30% - - 43° 78.9° 70.6° - - 1011.0
6/27 3:10am 35 9 G 12 76° 30% - - 42° 78.9° 70.6° - - 1011.0
6/27 3:00am 33 9 G 10 76° 25% - - 38° 78.9° 70.6° - - 1011.0
6/27 2:50am 25 8 G 9 77° 27% - - 41° 78.9° 70.6° - - 1011.0
6/27 2:40am 29 6 G 8 76° 27% - - 39° 78.9° 70.6° - - 1012.0
6/27 2:30am 11 6 G 7 76° 32% - - 44° 78.9° 70.6° - - 1012.0
6/27 2:20am 356 6 G 7 76° 29% - - 42° 78.9° 70.6° - - 1012.0
6/27 2:10am 348 6 G 7 76° 27% - - 40° 78.9° 70.6° - - 1012.0
6/27 2:00am 50 3 G 6 74° 30% - - 41° 78.9° 70.6° - - 1012.0
6/27 1:50am 103 2 G 4 75° 31% - - 43° 78.9° 70.6° - - 1012.0
6/27 1:40am 351 4 G 7 78° 24% - - 39° 78.9° 70.6° - - 1012.0
6/27 1:30am 23 5 G 7 77° 25% - - 39° 78.7° 70.6° - - 1012.0
6/27 1:20am 68 5 G 6 75° 28% - - 40° 76.4° 70.6° - - 1012.0
6/27 1:10am 68 5 G 6 74° 29% - - 40° 76.4° 70.6° - - 1012.0
6/27 1:00am 69 4 G 5 73° 47% - - 51° 76.4° 70.6° - - 1012.0
6/27 12:50am 97 4 G 6 73° 50% - - 53° 76.4° 71° - - 1012.0
6/27 12:40am 92 4 G 5 73° 48% - - 53° 76.4° 72.7° - - 1012.0
6/27 12:30am 92 4 G 6 75° 43% - - 50° 76.4° 72.7° - - 1013.0
6/27 12:20am 65 6 G 7 75° 39% - - 48° 76.3° 73.1° - - 1012.0
6/27 12:10am 66 7 G 8 74° 37% - - 47° 75.6° 73.1° - - 1013.0
6/27 12:00am 88 6 G 7 73° 37% - - 45° 85.3° 64.8° - - 1013.0
6/26 11:50pm 76 6 G 7 74° 37% - - 47° 85.3° 64.8° - - 1013.0
6/26 11:40pm 65 4 G 5 75° 40% - - 49° 85.3° 64.8° - - 1013.0
6/26 11:30pm 22 4 G 6 74° 40% - - 48° 85.3° 64.8° - - 1013.0
6/26 11:20pm 77 5 G 7 73° 43% - - 49° 85.3° 64.8° - - 1013.0
6/26 11:10pm 98 5 G 6 74° 43% - - 50° 85.3° 64.8° - - 1013.0
6/26 11:00pm 77 3 G 4 75° 41% - - 49° 85.3° 64.8° - - 1013.0
6/26 10:50pm 79 4 G 5 76° 38% - - 48° 85.3° 64.8° - - 1013.0
6/26 10:40pm 107 4 G 5 76° 32% - - 44° 85.3° 64.8° - - 1013.0
6/26 10:30pm 116 1 G 3 74° 35% - - 45° 85.3° 64.8° - - 1013.0
6/26 10:20pm 74 1 G 4 72° 42% - - 47° 85.3° 64.8° - - 1013.0
6/26 10:10pm 74 3 G 5 71° 49% - - 51° 85.3° 64.8° - - 1013.0
6/26 10:00pm 89 3 G 4 68° 60% - - 54° 85.3° 64.8° - - 1013.0
6/26 9:50pm 53 2 G 4 67° 68% - - 56° 85.3° 64.8° - - 1013.0
6/26 9:40pm 2 1 G 3 68° 67% - - 57° 85.3° 64.8° - - 1013.0
6/26 9:30pm 193 1 G 4 70° 56% - - 53° 85.3° 64.8° - - 1013.0
6/26 9:20pm 295 1 G 3 70° 63% - - 57° 85.3° 64.8° - - 1013.0
6/26 9:10pm 191 3 G 5 74° 39% - - 47° 85.3° 64.8° - - 1013.0
6/26 9:00pm 162 3 G 5 75° 35% - - 46° 85.3° 64.8° - - 1012.0
6/26 8:50pm 51 2 G 4 76° 35% - - 47° 85.3° 64.8° - - 1012.0
6/26 8:40pm 85 2 G 4 81° 24% - - 40° 85.3° 64.8° - - 1012.0
6/26 8:30pm 342 3 G 6 81° 21% - - 37° 85.3° 64.8° - - 1012.0
6/26 8:20pm 326 3 G 5 76° 33% - - 45° 85.3° 64.8° - - 1012.0
6/26 8:10pm 314 4 G 6 76° 36% - - 47° 85.3° 64.8° - - 1012.0
6/26 8:00pm 307 5 G 8 77° 33% - - 46° 85.3° 64.8° - - 1012.0
6/26 7:50pm 306 5 G 9 77° 35% - - 47° 85.3° 64.8° - - 1012.0
6/26 7:40pm 299 7 G 9 77° 37% - - 49° 85.3° 64.8° - - 1012.0
6/26 7:30pm 295 7 G 9 79° 41% - - 53° 85.3° 64.8° - - 1012.0
6/26 7:20pm 302 6 G 7 81° 38% - - 53° 85.3° 64.8° - - 1012.0
6/26 7:10pm 298 7 G 11 82° 35% - - 51° 85.3° 64.8° - - 1012.0
6/26 7:00pm 304 8 G 11 81° 35% - - 51° 85.3° 64.8° - - 1012.0
6/26 6:50pm 302 9 G 12 80° 38% - - 52° 85.3° 64.8° - - 1012.0
6/26 6:40pm 294 8 G 11 81° 37% - - 52° 85.3° 64.8° - - 1012.0
6/26 6:30pm 296 8 G 11 81° 35% - - 51° 85.3° 64.8° - - 1012.0
6/26 6:20pm 293 7 G 8 81° 36% - - 51° 85.3° 64.8° - - 1012.0
6/26 6:10pm 298 7 G 9 81° 33% - - 49° 85.3° 64.8° - - 1012.0
6/26 6:00pm 300 7 G 10 81° 36% - - 51° 85.3° 64.8° - - 1012.0
6/26 5:50pm 309 6 G 8 80° 43% - - 55° 85.3° 64.8° - - 1012.0
6/26 5:40pm 308 6 G 7 79° 48% - - 58° 85.3° 64.8° - - 1012.0
6/26 5:30pm 303 6 G 9 80° 47% - - 58° 85.3° 64.8° - - 1012.0
6/26 5:20pm 300 6 G 8 81° 46% - - 58° 85.3° 64.8° - - 1013.0
6/26 5:10pm 297 6 G 8 81° 46% - - 58° 85.3° 64.8° - - 1013.0
6/26 5:00pm 295 6 G 9 82° 44% - - 58° 85.3° 64.8° - - 1013.0
6/26 4:50pm 305 5 G 7 81° 43% - - 57° 85.3° 64.8° - - 1013.0
6/26 4:40pm 298 6 G 8 81° 44% - - 57° 85.3° 64.8° - - 1013.0
6/26 4:30pm 301 6 G 8 81° 43% - - 57° 85.3° 64.8° - - 1013.0
6/26 4:20pm 295 5 G 7 82° 41% - - 56° 85.3° 64.8° - - 1013.0
6/26 4:10pm 296 5 G 8 83° 39% - - 55° 85.3° 64.8° - - 1013.0
6/26 4:00pm 305 5 G 7 82° 39% - - 54° 85.3° 64.8° - - 1013.0
6/26 3:50pm 291 5 G 7 81° 41% - - 55° 85.3° 64.8° - - 1013.0
6/26 3:40pm 293 6 G 8 81° 42% - - 56° 85.3° 64.8° - - 1013.0
6/26 3:30pm 294 6 G 9 80° 44% - - 56° 85.3° 64.8° - - 1014.0
6/26 3:20pm 293 6 G 10 80° 42% - - 55° 85.3° 64.8° - - 1014.0
6/26 3:10pm 290 6 G 9 79° 41% - - 53° 85.3° 64.8° - - 1014.0
6/26 3:00pm 291 6 G 8 80° 39% - - 53° 85.3° 64.8° - - 1014.0
6/26 2:50pm 294 5 G 8 81° 39% - - 54° 85.3° 64.8° - - 1014.0
6/26 2:40pm 282 6 G 10 80° 38% - - 52° 85.3° 64.8° - - 1014.0
6/26 2:30pm 292 6 G 10 80° 39% - - 53° 85.3° 64.8° - - 1014.0
6/26 2:20pm 286 5 G 8 80° 39% - - 53° 85.3° 64.8° - - 1014.0
6/26 2:10pm 295 5 G 8 80° 41% - - 55° 85.3° 64.8° - - 1014.0
6/26 2:00pm 291 5 G 9 80° 45% - - 56° 85.3° 64.8° - - 1014.0
6/26 1:50pm 285 5 G 8 79° 47% - - 58° 85.3° 64.8° - - 1014.0
6/26 1:40pm 289 4 G 7 79° 49% - - 59° 85.3° 64.8° - - 1014.0
6/26 1:30pm 274 3 G 7 80° 49% - - 59° 85.3° 64.8° - - 1014.0
6/26 1:20pm 268 3 G 7 80° 49% - - 59° 85.3° 64.8° - - 1014.0
6/26 1:10pm 239 4 G 8 80° 47% - - 58° 85.3° 64.8° - - 1014.0
6/26 1:00pm 211 5 G 8 79° 48% - - 57° 85.3° 64.8° - - 1014.0
6/26 12:50pm 211 5 G 8 78° 51% - - 58° 85.3° 64.8° - - 1014.0
6/26 12:40pm 273 3 G 5 78° 54% - - 60° 85.3° 64.8° - - 1014.0
6/26 12:30pm 283 4 G 8 77° 56% - - 61° 85.3° 64.8° - - 1014.0
6/26 12:20pm 294 4 G 7 78° 56% - - 61° 85.3° 64.8° - - 1014.0
6/26 12:10pm 282 3 G 6 79° 54% - - 61° 85.3° 64.8° - - 1014.0
6/26 12:00pm 283 3 G 5 79° 54% - - 61° 85.3° 64.8° - - 1014.0
6/26 11:50am 299 4 G 6 78° 55% - - 61° 85.3° 64.8° - - 1014.0
6/26 11:40am 299 4 G 7 79° 53% - - 61° 85.3° 64.8° - - 1014.0
6/26 11:30am 276 4 G 6 81° 50% - - 60° 85.3° 64.8° - - 1014.0
6/26 11:20am 259 3 G 6 83° 46% - - 60° 85.3° 64.8° - - 1014.0
6/26 11:10am 243 3 G 7 84° 43% - - 59° 85.3° 64.8° - - 1014.0
6/26 11:00am 217 3 G 6 84° 41% - - 58° 85.2° 64.8° - - 1014.0
6/26 10:50am 233 3 G 7 83° 43% - - 58° 85° 64.8° - - 1014.0
6/26 10:40am 207 3 G 7 82° 42% - - 57° 84.9° 64.8° - - 1014.0
6/26 10:30am 242 2 G 4 79° 51% - - 60° 83° 64.8° - - 1014.0
6/26 10:20am 266 3 G 7 79° 53% - - 60° 83° 64.8° - - 1014.0
6/26 10:10am 241 3 G 7 79° 52% - - 60° 83° 64.8° - - 1014.0
6/26 10:00am 294 2 G 4 78° 55% - - 61° 83° 64.8° - - 1014.0
6/26 9:50am 256 3 G 5 81° 50% - - 60° 83° 64.8° - - 1013.0
6/26 9:40am 279 2 G 4 79° 55% - - 62° 80.6° 64.8° - - 1013.0
6/26 9:30am 279 2 G 4 79° 54% - - 61° 80.6° 64.8° - - 1013.0
6/26 9:20am 262 2 G 4 79° 54% - - 61° 80.4° 64.8° - - 1013.0
6/26 9:10am 184 2 G 4 78° 53% - - 60° 79.6° 64.8° - - 1013.0
6/26 9:00am 162 2 G 4 78° 54% - - 60° 79.6° 64.8° - - 1013.0
6/26 8:50am 187 2 G 4 78° 52% - - 59° 79.6° 64.8° - - 1013.0
6/26 8:40am 295 2 G 3 78° 50% - - 58° 79.5° 64.8° - - 1013.0
6/26 8:30am 173 1 G 4 77° 49% - - 57° 79.5° 64.8° - - 1013.0
6/26 8:20am 248 2 G 4 75° 50% - - 55° 79.5° 64.8° - - 1013.0
6/26 8:10am 173 3 G 7 77° 46% - - 55° 79.5° 64.8° - - 1013.0
6/26 8:00am 309 3 G 5 78° 37% - - 50° 79.5° 64.8° - - 1013.0
6/26 7:50am 315 2 G 5 77° 41% - - 52° 79.5° 64.8° - - 1013.0
6/26 7:40am 326 2 G 3 76° 42% - - 51° 79.5° 64.8° - - 1013.0
6/26 7:30am 319 1 G 2 75° 40% - - 49° 79.5° 64.8° - - 1013.0
6/26 7:20am 174 2 G 5 75° 40% - - 49° 79.5° 64.8° - - 1013.0
6/26 7:10am 351 2 G 4 77° 33% - - 46° 79.5° 64.8° - - 1012.0
6/26 7:00am 59 3 G 5 75° 35% - - 45° 77.5° 64.8° - - 1012.0
6/26 6:50am 348 1 G 3 72° 45% - - 50° 75.2° 64.8° - - 1013.0
6/26 6:40am 72 4 G 8 73° 40% - - 47° 75.2° 64.8° - - 1012.0
6/26 6:30am 71 9 G 11 74° 35% - - 45° 75.2° 64.8° - - 1012.0
6/26 6:20am 64 7 G 11 74° 35% - - 45° 75.2° 64.8° - - 1013.0
6/26 6:10am 67 6 G 9 74° 35% - - 45° 75.2° 64.8° - - 1013.0
6/26 6:00am 114 4 G 6 73° 39% - - 47° 75.1° 64.8° - - 1013.0